createdAt,value
2018-07-11T00:01:26.902Z,19.10
2018-07-11T00:03:55.929Z,19.10
2018-07-11T00:06:25.995Z,19.10
2018-07-11T00:08:54.728Z,19.10
2018-07-11T00:11:23.322Z,19.10
2018-07-11T00:13:52.227Z,19.10
2018-07-11T00:16:20.851Z,19.10
2018-07-11T00:18:49.393Z,19.10
2018-07-11T00:21:18.033Z,19.10
2018-07-11T00:23:46.609Z,19.00
2018-07-11T00:26:15.545Z,19.00
2018-07-11T00:28:44.169Z,19.00
2018-07-11T00:31:12.726Z,19.00
2018-07-11T00:33:41.382Z,19.00
2018-07-11T00:36:10.029Z,19.00
2018-07-11T00:38:39.157Z,19.00
2018-07-11T00:41:08.178Z,19.00
2018-07-11T00:43:36.805Z,18.90
2018-07-11T00:46:06.282Z,19.00
2018-07-11T00:48:35.462Z,18.90
2018-07-11T00:51:04.592Z,18.90
2018-07-11T00:53:35.748Z,18.90
2018-07-11T00:56:04.366Z,18.90
2018-07-11T00:58:36.010Z,18.90
2018-07-11T01:01:10.246Z,18.90
2018-07-11T01:03:40.481Z,18.90
2018-07-11T01:06:09.130Z,18.90
2018-07-11T01:08:39.446Z,18.80
2018-07-11T01:11:12.342Z,18.90
2018-07-11T01:13:42.192Z,18.80
2018-07-11T01:16:11.524Z,18.80
2018-07-11T01:18:44.801Z,18.80
2018-07-11T01:21:13.371Z,18.80
2018-07-11T01:23:41.889Z,18.80
2018-07-11T01:26:11.003Z,18.70
2018-07-11T01:28:39.569Z,18.70
2018-07-11T01:31:08.165Z,18.70
2018-07-11T01:33:36.730Z,18.70
2018-07-11T01:36:05.350Z,18.70
2018-07-11T01:38:33.925Z,18.80
2018-07-11T01:41:02.778Z,18.70
2018-07-11T01:43:31.444Z,18.70
2018-07-11T01:46:00.043Z,18.70
2018-07-11T01:48:28.701Z,18.70
2018-07-11T01:50:57.334Z,18.70
2018-07-11T01:53:25.942Z,18.70
2018-07-11T01:55:54.677Z,18.70
2018-07-11T01:58:23.294Z,18.60
2018-07-11T02:00:51.958Z,18.70
2018-07-11T02:03:20.552Z,18.60
2018-07-11T02:05:49.714Z,18.70
2018-07-11T02:08:18.358Z,18.60
2018-07-11T02:10:47.682Z,18.70
2018-07-11T02:13:16.324Z,18.60
2018-07-11T02:15:47.017Z,18.60
2018-07-11T02:18:17.593Z,18.60
2018-07-11T02:20:46.694Z,18.60
2018-07-11T02:23:16.022Z,18.60
2018-07-11T02:28:12.982Z,18.60
2018-07-11T02:30:41.858Z,18.60
2018-07-11T02:33:10.506Z,18.60
2018-07-11T02:35:39.125Z,18.60
2018-07-11T02:38:07.752Z,18.60
2018-07-11T02:40:36.343Z,18.60
2018-07-11T02:43:04.925Z,18.60
2018-07-11T02:45:33.594Z,18.50
2018-07-11T02:48:02.237Z,18.50
2018-07-11T02:50:31.034Z,18.50
2018-07-11T02:53:00.156Z,18.50
2018-07-11T02:55:28.750Z,18.50
2018-07-11T02:57:57.334Z,18.50
2018-07-11T03:00:25.948Z,18.50
2018-07-11T03:02:54.597Z,18.50
2018-07-11T03:05:23.423Z,18.50
2018-07-11T03:07:52.190Z,18.40
2018-07-11T03:10:20.739Z,18.50
2018-07-11T03:12:49.320Z,18.40
2018-07-11T03:15:17.894Z,18.40
2018-07-11T03:17:46.516Z,18.40
2018-07-11T03:20:15.106Z,18.40
2018-07-11T03:25:11.974Z,18.40
2018-07-11T03:27:40.624Z,18.40
2018-07-11T03:30:09.183Z,18.40
2018-07-11T03:32:37.902Z,18.40
2018-07-11T03:35:06.369Z,18.30
2018-07-11T03:37:35.026Z,18.30
2018-07-11T03:40:03.608Z,18.30
2018-07-11T03:42:32.234Z,18.30
2018-07-11T03:45:00.887Z,18.30
2018-07-11T03:47:29.460Z,18.30
2018-07-11T03:49:58.016Z,18.30
2018-07-11T03:52:26.601Z,18.30
2018-07-11T03:54:55.110Z,18.20
2018-07-11T03:57:23.662Z,18.30
2018-07-11T04:02:20.445Z,18.30
2018-07-11T04:04:49.036Z,18.20
2018-07-11T04:07:17.622Z,18.20
2018-07-11T04:09:46.143Z,18.30
2018-07-11T04:12:14.698Z,18.20
2018-07-11T04:14:43.278Z,18.20
2018-07-11T04:17:11.836Z,18.20
2018-07-11T04:19:40.416Z,18.20
2018-07-11T04:22:08.939Z,18.20
2018-07-11T04:24:37.537Z,18.20
2018-07-11T04:27:06.152Z,18.10
2018-07-11T04:29:34.799Z,18.20
2018-07-11T04:32:03.464Z,18.20
2018-07-11T04:34:32.100Z,18.20
2018-07-11T04:37:00.689Z,18.20
2018-07-11T04:39:29.274Z,18.10
2018-07-11T04:44:26.150Z,18.10
2018-07-11T04:46:54.851Z,18.10
2018-07-11T04:49:23.529Z,18.10
2018-07-11T04:51:52.484Z,18.10
2018-07-11T04:54:21.177Z,18.10
2018-07-11T04:56:49.823Z,18.10
2018-07-11T04:59:18.370Z,18.10
2018-07-11T05:01:46.931Z,18.10
2018-07-11T05:04:15.637Z,18.10
2018-07-11T05:06:44.208Z,18.10
2018-07-11T05:09:12.753Z,18.10
2018-07-11T05:11:41.350Z,18.00
2018-07-11T05:14:09.906Z,18.00
2018-07-11T05:16:38.460Z,18.00
2018-07-11T05:21:35.269Z,18.00
2018-07-11T05:24:03.864Z,18.00
2018-07-11T05:26:32.395Z,18.00
2018-07-11T05:29:00.954Z,18.00
2018-07-11T05:31:29.501Z,18.00
2018-07-11T05:33:58.093Z,18.00
2018-07-11T05:36:26.669Z,18.00
2018-07-11T05:38:55.261Z,18.00
2018-07-11T05:41:23.798Z,18.00
2018-07-11T05:43:52.379Z,18.00
2018-07-11T05:48:49.144Z,18.00
2018-07-11T05:53:45.881Z,18.00
2018-07-11T05:56:14.514Z,18.00
2018-07-11T05:58:43.131Z,17.90
2018-07-11T06:01:11.674Z,17.90
2018-07-11T06:03:40.219Z,17.90
2018-07-11T06:06:08.784Z,17.90
2018-07-11T06:08:37.332Z,17.90
2018-07-11T06:11:23.309Z,17.90
2018-07-11T06:13:53.177Z,17.90
2018-07-11T06:16:22.376Z,17.90
2018-07-11T06:18:50.914Z,17.90
2018-07-11T06:21:20.558Z,17.90
2018-07-11T06:23:49.128Z,17.90
2018-07-11T06:26:17.830Z,17.90
2018-07-11T06:28:46.380Z,17.90
2018-07-11T06:31:14.952Z,17.90
2018-07-11T06:33:43.506Z,17.90
2018-07-11T06:36:12.112Z,17.90
2018-07-11T06:38:40.630Z,17.90
2018-07-11T06:41:09.177Z,17.90
2018-07-11T06:43:37.786Z,17.90
2018-07-11T06:46:06.469Z,17.90
2018-07-11T06:48:35.002Z,17.90
2018-07-11T06:51:03.550Z,17.90
2018-07-11T06:53:32.074Z,17.90
2018-07-11T06:56:00.664Z,17.90
2018-07-11T06:58:29.288Z,17.90
2018-07-11T07:00:57.832Z,17.90
2018-07-11T07:03:26.454Z,17.90
2018-07-11T07:05:55.037Z,18.00
2018-07-11T07:08:23.608Z,17.90
2018-07-11T07:10:52.172Z,17.90
2018-07-11T07:13:20.700Z,18.00
2018-07-11T07:15:49.243Z,17.90
2018-07-11T07:18:17.817Z,18.00
2018-07-11T07:20:46.379Z,18.00
2018-07-11T07:23:14.926Z,18.00
2018-07-11T07:25:43.665Z,18.00
2018-07-11T07:28:12.361Z,18.00
2018-07-11T07:30:40.964Z,18.00
2018-07-11T07:33:09.509Z,18.00
2018-07-11T07:35:38.154Z,18.00
2018-07-11T07:38:07.100Z,18.00
2018-07-11T07:40:35.642Z,18.00
2018-07-11T07:43:04.184Z,18.00
2018-07-11T07:48:01.943Z,18.00
2018-07-11T07:50:30.572Z,18.00
2018-07-11T07:52:59.187Z,18.00
2018-07-11T07:55:27.899Z,18.00
2018-07-11T07:57:56.520Z,18.00
2018-07-11T08:00:25.231Z,18.00
2018-07-11T08:02:53.751Z,18.00
2018-07-11T08:05:22.335Z,18.10
2018-07-11T08:07:51.101Z,18.10
2018-07-11T08:10:20.072Z,18.10
2018-07-11T08:12:48.745Z,18.10
2018-07-11T08:15:17.315Z,18.10
2018-07-11T08:17:45.929Z,18.10
2018-07-11T08:20:14.521Z,18.10
2018-07-11T08:23:20.970Z,18.10
2018-07-11T08:26:02.013Z,18.10
2018-07-11T08:34:22.728Z,18.10
2018-07-11T08:39:09.407Z,18.10
2018-07-11T08:41:49.902Z,18.10
2018-07-11T08:44:28.676Z,18.10
2018-07-11T08:47:09.433Z,18.10
2018-07-11T08:49:47.465Z,18.10
2018-07-11T08:54:28.789Z,18.10
2018-07-11T08:57:23.226Z,18.10
2018-07-11T09:01:06.994Z,18.10
2018-07-11T09:03:47.905Z,18.10
2018-07-11T09:06:43.829Z,18.20
2018-07-11T09:09:19.933Z,18.20
2018-07-11T09:14:36.352Z,18.20
2018-07-11T09:17:19.874Z,18.30
2018-07-11T09:24:09.754Z,18.30
2018-07-11T09:26:38.251Z,18.30
2018-07-11T09:29:07.120Z,18.30
2018-07-11T09:31:35.729Z,18.30
2018-07-11T09:34:04.326Z,18.40
2018-07-11T09:36:32.854Z,18.40
2018-07-11T09:39:01.498Z,18.50
2018-07-11T09:41:30.093Z,18.50
2018-07-11T09:43:58.729Z,18.50
2018-07-11T09:46:27.517Z,18.50
2018-07-11T09:48:56.147Z,18.50
2018-07-11T09:51:24.697Z,18.20
2018-07-11T09:53:53.295Z,18.10
2018-07-11T09:56:21.917Z,18.10
2018-07-11T09:58:50.560Z,18.20
2018-07-11T10:01:24.959Z,18.30
2018-07-11T10:03:54.309Z,18.40
2018-07-11T10:06:23.168Z,18.60
2018-07-11T10:08:52.282Z,18.70
2018-07-11T10:11:20.960Z,18.80
2018-07-11T10:13:49.936Z,18.90
2018-07-11T10:16:18.471Z,19.00
2018-07-11T10:21:22.365Z,19.00
2018-07-11T10:23:51.034Z,19.10
2018-07-11T10:26:19.625Z,19.20
2018-07-11T10:28:48.189Z,19.20
2018-07-11T10:31:16.745Z,19.20
2018-07-11T10:33:45.298Z,19.30
2018-07-11T10:36:13.857Z,19.40
2018-07-11T10:38:42.500Z,19.40
2018-07-11T10:41:11.034Z,19.30
2018-07-11T10:43:39.929Z,19.20
2018-07-11T10:46:08.749Z,19.10
2018-07-11T10:48:37.517Z,19.00
2018-07-11T10:51:06.380Z,18.90
2018-07-11T10:53:34.947Z,18.90
2018-07-11T10:56:03.533Z,18.80
2018-07-11T10:58:32.139Z,18.80
2018-07-11T11:01:05.697Z,18.70
2018-07-11T11:03:30.521Z,18.70
2018-07-11T11:05:59.171Z,18.70
2018-07-11T11:08:28.525Z,18.70
2018-07-11T11:10:57.107Z,18.60
2018-07-11T11:13:26.182Z,18.70
2018-07-11T11:15:55.393Z,18.60
2018-07-11T11:18:24.306Z,18.60
2018-07-11T11:20:54.313Z,18.60
2018-07-11T11:23:23.249Z,18.60
2018-07-11T11:25:51.853Z,18.60
2018-07-11T11:28:20.438Z,18.20
2018-07-11T11:30:49.042Z,18.30
2018-07-11T11:33:17.595Z,18.40
2018-07-11T11:35:46.231Z,18.50
2018-07-11T11:40:42.990Z,18.90
2018-07-11T11:43:11.562Z,18.90
2018-07-11T11:45:40.142Z,19.00
2018-07-11T11:48:08.756Z,19.00
2018-07-11T11:50:37.364Z,19.00
2018-07-11T11:53:06.098Z,18.90
2018-07-11T11:55:34.686Z,18.90
2018-07-11T11:58:03.242Z,18.90
2018-07-11T12:00:31.802Z,18.90
2018-07-11T12:03:00.362Z,18.90
2018-07-11T12:05:28.967Z,19.00
2018-07-11T12:07:57.542Z,19.10
2018-07-11T12:10:26.100Z,19.20
2018-07-11T12:12:54.651Z,19.30
2018-07-11T12:15:23.304Z,19.50
2018-07-11T12:17:52.034Z,19.50
2018-07-11T12:20:20.623Z,19.20
2018-07-11T12:22:49.328Z,20.10
2018-07-11T12:25:18.049Z,21.70
2018-07-11T12:27:46.852Z,23.00
2018-07-11T12:30:15.452Z,23.80
2018-07-11T12:32:44.094Z,24.20
2018-07-11T12:35:12.715Z,24.50
2018-07-11T12:40:09.547Z,24.90
2018-07-11T12:42:38.152Z,25.10
2018-07-11T12:45:06.862Z,25.30
2018-07-11T12:47:40.802Z,25.30
2018-07-11T12:50:09.398Z,25.40
2018-07-11T12:52:37.975Z,25.40
2018-07-11T12:55:06.945Z,25.30
2018-07-11T12:57:36.188Z,25.30
2018-07-11T13:00:04.870Z,25.30
2018-07-11T13:02:33.893Z,25.20
2018-07-11T13:05:03.373Z,25.20
2018-07-11T13:10:00.413Z,25.10
2018-07-11T13:12:29.100Z,25.10
2018-07-11T13:14:57.724Z,25.10
2018-07-11T13:17:26.289Z,25.10
2018-07-11T13:19:54.858Z,25.10
2018-07-11T13:22:23.463Z,25.10
2018-07-11T13:24:52.200Z,25.00
2018-07-11T13:27:20.786Z,24.90
2018-07-11T13:29:49.402Z,25.00
2018-07-11T13:32:18.027Z,24.90
2018-07-11T13:37:14.838Z,25.00
2018-07-11T13:39:43.457Z,25.00
2018-07-11T13:42:12.075Z,24.90
2018-07-11T13:44:40.680Z,24.80
2018-07-11T13:47:14.608Z,24.70
2018-07-11T13:49:43.275Z,24.80
2018-07-11T13:52:12.137Z,24.80
2018-07-11T13:54:40.752Z,24.80
2018-07-11T13:57:09.406Z,24.80
2018-07-11T13:59:37.953Z,24.70
2018-07-11T14:02:07.076Z,24.70
2018-07-11T14:04:35.656Z,24.70
2018-07-11T14:09:32.526Z,24.60
2018-07-11T14:12:01.117Z,24.60
2018-07-11T14:14:30.020Z,24.50
2018-07-11T14:16:58.726Z,24.50
2018-07-11T14:19:27.763Z,24.40
2018-07-11T14:21:56.818Z,24.40
2018-07-11T14:24:26.151Z,24.40
2018-07-11T14:26:54.832Z,24.40
2018-07-11T14:29:28.513Z,24.30
2018-07-11T14:31:57.993Z,24.30
2018-07-11T14:34:26.545Z,24.30
2018-07-11T14:36:55.167Z,24.30
2018-07-11T14:39:23.720Z,24.20
2018-07-11T14:44:20.851Z,24.20
2018-07-11T14:46:49.467Z,24.30
2018-07-11T14:49:19.166Z,24.30
2018-07-11T14:51:47.790Z,24.30
2018-07-11T14:54:16.399Z,24.30
2018-07-11T14:56:45.057Z,24.30
2018-07-11T14:59:13.669Z,24.30
2018-07-11T15:01:42.236Z,24.20
2018-07-11T15:04:10.811Z,24.30
2018-07-11T15:06:39.562Z,24.20
2018-07-11T15:09:08.492Z,24.20
2018-07-11T15:11:36.844Z,24.10
2018-07-11T15:14:05.559Z,24.10
2018-07-11T15:16:34.151Z,24.10
2018-07-11T15:19:02.775Z,24.00
2018-07-11T15:21:31.428Z,24.00
2018-07-11T15:24:00.405Z,24.00
2018-07-11T15:26:29.029Z,23.90
2018-07-11T15:28:57.891Z,23.90
2018-07-11T15:31:27.381Z,23.90
2018-07-11T15:33:55.998Z,23.90
2018-07-11T15:36:24.559Z,23.90
2018-07-11T15:38:53.240Z,23.80
2018-07-11T15:41:21.833Z,23.90
2018-07-11T15:43:50.514Z,23.80
2018-07-11T15:46:19.147Z,23.80
2018-07-11T15:48:48.488Z,23.80
2018-07-11T15:51:17.121Z,23.70
2018-07-11T15:53:45.888Z,23.70
2018-07-11T15:56:14.515Z,23.70
2018-07-11T15:58:45.285Z,23.70
2018-07-11T16:01:13.899Z,23.70
2018-07-11T16:03:45.983Z,23.70
2018-07-11T16:06:15.424Z,23.70
2018-07-11T16:08:52.199Z,23.60
2018-07-11T16:11:20.832Z,23.60
2018-07-11T16:13:49.530Z,23.60
2018-07-11T16:16:18.074Z,23.60
2018-07-11T16:18:46.746Z,23.60
2018-07-11T16:21:15.408Z,23.60
2018-07-11T16:23:44.063Z,23.50
2018-07-11T16:26:13.006Z,23.40
2018-07-11T16:28:41.606Z,23.50
2018-07-11T16:31:10.706Z,23.40
2018-07-11T16:33:40.602Z,23.40
2018-07-11T16:36:09.549Z,23.40
2018-07-11T16:38:38.339Z,23.40
2018-07-11T16:41:06.970Z,23.40
2018-07-11T16:46:04.290Z,23.30
2018-07-11T16:48:32.978Z,23.30
2018-07-11T16:51:01.783Z,23.30
2018-07-11T16:53:30.483Z,23.30
2018-07-11T16:55:59.102Z,23.30
2018-07-11T16:58:33.642Z,23.20
2018-07-11T17:01:02.279Z,23.20
2018-07-11T17:03:30.941Z,23.20
2018-07-11T17:06:06.594Z,23.20
2018-07-11T17:08:37.610Z,23.20
2018-07-11T17:11:22.621Z,23.10
2018-07-11T17:13:56.532Z,23.10
2018-07-11T17:16:35.353Z,23.10
2018-07-11T17:19:13.826Z,23.10
2018-07-11T17:24:17.123Z,23.00
2018-07-11T17:26:47.335Z,23.00
2018-07-11T17:29:28.882Z,23.00
2018-07-11T17:32:05.117Z,23.00
2018-07-11T17:34:34.425Z,22.90
2018-07-11T17:37:04.243Z,22.90
2018-07-11T17:39:50.875Z,22.90
2018-07-11T17:42:25.865Z,22.90
2018-07-11T17:45:14.857Z,22.80
2018-07-11T17:48:01.190Z,22.80
2018-07-11T17:50:30.338Z,22.80
2018-07-11T17:53:10.588Z,22.70
2018-07-11T17:55:49.335Z,22.70
2018-07-11T17:58:19.476Z,22.70
2018-07-11T18:00:54.237Z,22.70
2018-07-11T18:05:35.451Z,22.70
2018-07-11T18:08:07.851Z,22.70
2018-07-11T18:10:50.681Z,22.60
2018-07-11T18:13:33.897Z,22.60
2018-07-11T18:16:18.830Z,22.60
2018-07-11T18:19:02.682Z,22.60
2018-07-11T18:21:44.675Z,22.50
2018-07-11T18:24:20.595Z,22.50
2018-07-11T18:26:59.958Z,22.50
2018-07-11T18:29:37.896Z,22.40
2018-07-11T18:32:21.042Z,22.40
2018-07-11T18:35:00.428Z,22.40
2018-07-11T18:37:46.333Z,22.40
2018-07-11T18:40:38.223Z,22.40
2018-07-11T18:45:27.543Z,22.30
2018-07-11T18:48:21.361Z,22.30
2018-07-11T18:50:55.589Z,22.20
2018-07-11T18:53:34.649Z,22.20
2018-07-11T18:56:19.506Z,22.20
2018-07-11T18:58:58.181Z,22.20
2018-07-11T19:02:03.362Z,22.10
2018-07-11T19:05:41.131Z,22.10
2018-07-11T19:09:19.307Z,22.10
2018-07-11T19:11:55.107Z,22.00
2018-07-11T19:14:34.108Z,22.00
2018-07-11T19:17:10.929Z,22.00
2018-07-11T19:20:55.301Z,22.00
2018-07-11T19:23:33.318Z,21.90
2018-07-11T19:27:12.886Z,21.90
2018-07-11T19:34:32.605Z,21.80
2018-07-11T19:37:05.742Z,21.80
2018-07-11T19:39:45.973Z,21.70
2018-07-11T19:44:29.442Z,21.70
2018-07-11T19:47:07.146Z,21.70
2018-07-11T19:49:45.838Z,21.60
2018-07-11T19:52:24.963Z,21.60
2018-07-11T19:57:07.229Z,21.60
2018-07-11T19:59:35.870Z,21.60
2018-07-11T20:02:04.481Z,21.50
2018-07-11T20:04:33.155Z,21.50
2018-07-11T20:07:01.741Z,21.50
2018-07-11T20:09:30.370Z,21.50
2018-07-11T20:11:59.211Z,21.40
2018-07-11T20:14:28.981Z,21.40
2018-07-11T20:16:57.574Z,21.30
2018-07-11T20:19:26.182Z,21.30
2018-07-11T20:21:54.947Z,21.30
2018-07-11T20:24:23.560Z,21.30
2018-07-11T20:26:52.279Z,21.30
2018-07-11T20:29:20.912Z,21.20
2018-07-11T20:31:49.501Z,21.20
2018-07-11T20:34:18.096Z,21.20
2018-07-11T20:36:46.695Z,21.20
2018-07-11T20:39:15.264Z,21.10
2018-07-11T20:41:44.252Z,21.10
2018-07-11T20:44:12.908Z,21.10
2018-07-11T20:46:41.567Z,21.00
2018-07-11T20:49:15.585Z,21.00
2018-07-11T20:51:44.165Z,21.00
2018-07-11T20:54:12.749Z,21.00
2018-07-11T20:56:41.416Z,20.90
2018-07-11T20:59:21.429Z,20.90
2018-07-11T21:02:01.181Z,20.90
2018-07-11T21:04:41.330Z,20.90
2018-07-11T21:10:54.665Z,20.80
2018-07-11T21:13:32.831Z,20.70
2018-07-11T21:16:12.654Z,20.70
2018-07-11T21:19:09.767Z,20.70
2018-07-11T21:21:39.340Z,20.70
2018-07-11T21:24:08.966Z,20.60
2018-07-11T21:26:38.345Z,20.60
2018-07-11T21:29:07.165Z,20.60
2018-07-11T21:31:35.750Z,20.60
2018-07-11T21:34:04.720Z,20.50
2018-07-11T21:36:33.306Z,20.50
2018-07-11T21:39:01.883Z,20.50
2018-07-11T21:41:30.472Z,20.50
2018-07-11T21:43:59.084Z,20.40
2018-07-11T21:46:27.677Z,20.40
2018-07-11T21:48:56.210Z,20.40
2018-07-11T21:51:24.811Z,20.40
2018-07-11T21:53:53.369Z,20.30
2018-07-11T21:56:21.960Z,20.30
2018-07-11T21:58:50.764Z,20.30
2018-07-11T22:01:19.447Z,20.20
2018-07-11T22:03:47.988Z,20.20
2018-07-11T22:06:16.549Z,20.20
2018-07-11T22:08:45.105Z,20.10
2018-07-11T22:11:13.730Z,20.10
2018-07-11T22:13:42.251Z,20.10
2018-07-11T22:16:10.849Z,20.10
2018-07-11T22:18:43.154Z,20.10
2018-07-11T22:21:11.447Z,20.00
2018-07-11T22:23:39.049Z,20.00
2018-07-11T22:26:06.437Z,20.00
2018-07-11T22:28:33.861Z,20.00
2018-07-11T22:31:01.248Z,19.90
2018-07-11T22:33:28.601Z,19.90
2018-07-11T22:35:56.069Z,19.90
2018-07-11T22:38:23.422Z,19.90
2018-07-11T22:40:50.798Z,19.80
2018-07-11T22:43:18.150Z,19.80
2018-07-11T22:45:45.525Z,19.80
2018-07-11T22:48:12.881Z,19.80
2018-07-11T22:50:40.268Z,19.70
2018-07-11T22:53:07.638Z,19.70
2018-07-11T22:55:35.020Z,19.70
2018-07-11T22:58:02.381Z,19.70
2018-07-11T23:00:29.779Z,19.60
2018-07-11T23:02:57.145Z,19.60
2018-07-11T23:05:24.519Z,19.60
2018-07-11T23:07:51.930Z,19.60
2018-07-11T23:12:46.940Z,19.50
2018-07-11T23:15:14.295Z,19.50
2018-07-11T23:17:41.678Z,19.40
2018-07-11T23:20:09.037Z,19.40
2018-07-11T23:22:36.517Z,19.40
2018-07-11T23:25:03.902Z,19.40
2018-07-11T23:27:31.347Z,19.40
2018-07-11T23:29:58.706Z,19.30
2018-07-11T23:32:26.086Z,19.30
2018-07-11T23:34:53.445Z,19.30
2018-07-11T23:37:20.822Z,19.30
2018-07-11T23:39:48.183Z,19.30
2018-07-11T23:42:15.562Z,19.20
2018-07-11T23:44:42.917Z,19.20
2018-07-11T23:47:10.311Z,19.20
2018-07-11T23:49:37.732Z,19.20
2018-07-11T23:52:05.108Z,19.10
2018-07-11T23:54:32.511Z,19.10
2018-07-11T23:56:59.897Z,19.10
2018-07-11T23:59:27.254Z,19.10
